createdAt,value
2018-06-12T00:00:36.807Z,16.20
2018-06-12T00:03:05.636Z,16.20
2018-06-12T00:05:34.422Z,16.20
2018-06-12T00:08:03.327Z,16.20
2018-06-12T00:10:32.445Z,16.20
2018-06-12T00:13:01.842Z,16.20
2018-06-12T00:15:31.774Z,16.20
2018-06-12T00:18:00.792Z,16.20
2018-06-12T00:20:29.616Z,16.20
2018-06-12T00:22:58.496Z,16.20
2018-06-12T00:25:38.308Z,16.00
2018-06-12T00:28:07.138Z,16.00
2018-06-12T00:30:35.948Z,15.90
2018-06-12T00:33:04.800Z,15.90
2018-06-12T00:35:33.620Z,15.90
2018-06-12T00:38:02.550Z,16.00
2018-06-12T00:40:31.670Z,15.90
2018-06-12T00:43:00.544Z,15.90
2018-06-12T00:45:29.348Z,15.90
2018-06-12T00:47:58.188Z,15.80
2018-06-12T00:50:27.297Z,15.80
2018-06-12T00:52:56.148Z,15.80
2018-06-12T00:55:24.958Z,15.70
2018-06-12T00:57:53.884Z,15.70
2018-06-12T01:00:22.854Z,15.70
2018-06-12T01:02:51.969Z,15.70
2018-06-12T01:05:20.935Z,15.70
2018-06-12T01:07:50.381Z,15.70
2018-06-12T01:10:19.229Z,15.60
2018-06-12T01:12:48.290Z,15.60
2018-06-12T01:15:17.127Z,15.60
2018-06-12T01:17:45.997Z,15.60
2018-06-12T01:20:15.057Z,15.50
2018-06-12T01:22:43.879Z,15.60
2018-06-12T01:25:12.708Z,15.60
2018-06-12T01:27:41.770Z,15.50
2018-06-12T01:30:10.694Z,15.50
2018-06-12T01:32:39.565Z,15.50
2018-06-12T01:35:08.351Z,15.50
2018-06-12T01:37:37.205Z,15.50
2018-06-12T01:40:06.183Z,15.50
2018-06-12T01:42:35.013Z,15.40
2018-06-12T01:45:03.905Z,15.50
2018-06-12T01:47:32.723Z,15.50
2018-06-12T01:50:01.558Z,15.50
2018-06-12T01:52:30.590Z,15.50
2018-06-12T01:54:59.313Z,15.40
2018-06-12T01:57:28.401Z,15.40
2018-06-12T01:59:57.393Z,15.50
2018-06-12T02:02:26.088Z,15.40
2018-06-12T02:04:54.827Z,15.40
2018-06-12T02:07:23.665Z,15.40
2018-06-12T02:09:52.685Z,15.30
2018-06-12T02:12:21.562Z,15.30
2018-06-12T02:14:50.521Z,15.30
2018-06-12T02:17:19.347Z,15.30
2018-06-12T02:19:48.232Z,15.40
2018-06-12T02:22:17.043Z,15.30
2018-06-12T02:24:45.984Z,15.30
2018-06-12T02:27:14.897Z,15.30
2018-06-12T02:29:43.665Z,15.20
2018-06-12T02:32:12.904Z,15.20
2018-06-12T02:34:41.663Z,15.20
2018-06-12T02:37:10.451Z,15.20
2018-06-12T02:39:39.421Z,15.20
2018-06-12T02:42:08.750Z,15.20
2018-06-12T02:44:37.698Z,15.20
2018-06-12T02:47:06.448Z,15.20
2018-06-12T02:49:35.272Z,15.20
2018-06-12T02:52:04.110Z,15.20
2018-06-12T02:54:33.309Z,15.10
2018-06-12T02:57:02.053Z,15.10
2018-06-12T02:59:31.044Z,15.10
2018-06-12T03:02:01.200Z,15.10
2018-06-12T03:04:29.967Z,15.10
2018-06-12T03:06:58.922Z,15.10
2018-06-12T03:09:27.728Z,15.00
2018-06-12T03:11:56.403Z,15.10
2018-06-12T03:14:25.142Z,15.10
2018-06-12T03:16:54.237Z,15.10
2018-06-12T03:19:23.137Z,15.10
2018-06-12T03:21:52.313Z,15.00
2018-06-12T03:24:21.388Z,15.00
2018-06-12T03:26:50.189Z,14.90
2018-06-12T03:29:18.997Z,14.90
2018-06-12T03:31:47.846Z,14.90
2018-06-12T03:34:16.684Z,14.90
2018-06-12T03:36:46.054Z,14.80
2018-06-12T03:39:14.898Z,14.70
2018-06-12T03:41:43.669Z,14.70
2018-06-12T03:44:12.477Z,14.70
2018-06-12T03:46:41.671Z,14.70
2018-06-12T03:49:10.527Z,14.80
2018-06-12T03:51:39.367Z,14.80
2018-06-12T03:54:08.373Z,14.80
2018-06-12T03:59:31.545Z,14.80
2018-06-12T04:02:00.378Z,14.70
2018-06-12T04:04:29.259Z,14.60
2018-06-12T04:06:58.189Z,14.60
2018-06-12T04:09:26.924Z,14.60
2018-06-12T04:11:55.992Z,14.60
2018-06-12T04:14:30.674Z,14.60
2018-06-12T04:17:05.672Z,14.50
2018-06-12T04:19:37.469Z,14.60
2018-06-12T04:22:10.823Z,14.60
2018-06-12T04:24:40.311Z,14.70
2018-06-12T04:27:08.893Z,14.60
2018-06-12T04:29:37.625Z,14.60
2018-06-12T04:32:06.469Z,14.60
2018-06-12T04:34:35.249Z,14.60
2018-06-12T04:37:04.047Z,14.60
2018-06-12T04:39:32.741Z,14.60
2018-06-12T04:42:01.450Z,14.50
2018-06-12T04:44:30.198Z,14.40
2018-06-12T04:46:59.015Z,14.40
2018-06-12T04:49:27.820Z,14.40
2018-06-12T04:51:56.685Z,14.40
2018-06-12T04:54:25.515Z,14.50
2018-06-12T04:56:54.670Z,14.40
2018-06-12T04:59:23.490Z,14.50
2018-06-12T05:01:57.893Z,14.60
2018-06-12T05:04:26.713Z,14.70
2018-06-12T05:06:55.611Z,14.80
2018-06-12T05:09:24.393Z,14.60
2018-06-12T05:11:53.175Z,14.50
2018-06-12T05:14:22.038Z,14.50
2018-06-12T05:16:50.656Z,14.60
2018-06-12T05:19:19.517Z,14.70
2018-06-12T05:21:48.200Z,14.60
2018-06-12T05:24:17.594Z,14.70
2018-06-12T05:26:46.417Z,14.60
2018-06-12T05:29:15.562Z,14.60
2018-06-12T05:31:44.438Z,14.50
2018-06-12T05:36:59.078Z,14.60
2018-06-12T05:39:27.793Z,14.50
2018-06-12T05:41:56.728Z,14.60
2018-06-12T05:44:25.375Z,14.50
2018-06-12T05:46:54.661Z,14.50
2018-06-12T05:49:23.385Z,14.60
2018-06-12T05:51:52.015Z,14.60
2018-06-12T05:54:21.031Z,14.80
2018-06-12T05:56:49.751Z,14.90
2018-06-12T05:59:18.305Z,14.80
2018-06-12T06:01:46.881Z,14.60
2018-06-12T06:04:15.673Z,14.50
2018-06-12T06:06:45.408Z,14.50
2018-06-12T06:09:14.137Z,14.70
2018-06-12T06:11:43.072Z,14.90
2018-06-12T06:14:19.999Z,14.80
2018-06-12T06:16:49.933Z,14.70
2018-06-12T06:19:20.661Z,14.70
2018-06-12T06:21:49.984Z,14.70
2018-06-12T06:24:19.014Z,14.80
2018-06-12T06:26:48.098Z,14.80
2018-06-12T06:29:20.254Z,14.80
2018-06-12T06:31:48.755Z,14.90
2018-06-12T06:34:20.810Z,15.00
2018-06-12T09:45:34.597Z,16.90
2018-06-12T09:48:03.209Z,16.90
2018-06-12T09:50:32.380Z,16.60
2018-06-12T09:53:01.172Z,16.60
2018-06-12T09:55:30.413Z,16.70
2018-06-12T09:57:59.061Z,16.70
2018-06-12T10:00:34.591Z,16.80
2018-06-12T10:03:06.809Z,16.80
2018-06-12T10:05:37.451Z,16.70
2018-06-12T10:08:06.566Z,16.60
2018-06-12T10:10:35.338Z,16.50
2018-06-12T10:13:03.980Z,16.70
2018-06-12T10:15:32.697Z,17.10
2018-06-12T10:18:01.262Z,17.20
2018-06-12T10:20:30.287Z,17.30
2018-06-12T10:22:59.103Z,17.00
2018-06-12T10:25:27.933Z,16.80
2018-06-12T10:27:59.180Z,16.60
2018-06-12T10:30:30.945Z,16.60
2018-06-12T10:32:59.753Z,16.50
2018-06-12T10:35:28.474Z,16.40
2018-06-12T10:37:57.193Z,16.20
2018-06-12T10:40:26.013Z,15.90
2018-06-12T10:42:55.255Z,16.00
2018-06-12T10:45:23.898Z,16.10
2018-06-12T10:47:58.763Z,16.00
2018-06-12T10:50:27.767Z,15.70
2018-06-12T10:52:57.744Z,15.50
2018-06-12T10:55:26.334Z,15.40
2018-06-12T10:57:55.018Z,15.30
2018-06-12T11:00:23.836Z,15.30
2018-06-12T11:02:54.618Z,15.30
2018-06-12T11:05:23.968Z,15.30
2018-06-12T11:07:52.735Z,15.30
2018-06-12T11:10:21.490Z,15.30
2018-06-12T11:12:50.168Z,15.40
2018-06-12T11:15:18.760Z,15.20
2018-06-12T11:17:47.867Z,15.00
2018-06-12T11:20:16.712Z,15.10
2018-06-12T11:22:45.338Z,15.10
2018-06-12T11:25:14.333Z,15.00
2018-06-12T11:27:42.939Z,15.00
2018-06-12T11:30:11.823Z,15.00
2018-06-12T11:32:40.407Z,15.00
2018-06-12T11:35:09.062Z,15.00
2018-06-12T11:37:37.956Z,15.10
2018-06-12T11:40:06.781Z,15.10
2018-06-12T11:42:35.369Z,15.00
2018-06-12T11:45:04.355Z,15.10
2018-06-12T11:47:32.864Z,15.20
2018-06-12T11:50:07.439Z,15.30
2018-06-12T11:52:35.857Z,15.40
2018-06-12T11:55:04.356Z,15.40
2018-06-12T11:57:33.201Z,15.40
2018-06-12T12:00:01.942Z,15.30
2018-06-12T12:02:30.470Z,15.20
2018-06-12T12:04:59.156Z,15.30
2018-06-12T12:07:27.978Z,15.30
2018-06-12T12:09:56.982Z,15.30
2018-06-12T12:12:25.699Z,15.30
2018-06-12T12:14:54.523Z,15.40
2018-06-12T12:17:23.284Z,15.70
2018-06-12T12:19:51.925Z,15.90
2018-06-12T12:22:22.715Z,15.80
2018-06-12T12:24:51.485Z,15.70
2018-06-12T12:27:20.251Z,15.60
2018-06-12T12:29:49.906Z,15.50
2018-06-12T12:32:18.492Z,15.50
2018-06-12T12:34:54.555Z,15.40
2018-06-12T12:37:24.818Z,15.40
2018-06-12T12:39:54.442Z,15.60
2018-06-12T12:42:23.017Z,15.80
2018-06-12T12:44:51.708Z,15.70
2018-06-12T12:47:23.023Z,15.40
2018-06-12T12:49:51.782Z,15.20
2018-06-12T12:52:20.555Z,15.10
2018-06-12T12:54:49.322Z,15.10
2018-06-12T12:57:18.458Z,15.30
2018-06-12T12:59:47.456Z,15.40
2018-06-12T13:02:16.293Z,15.40
2018-06-12T13:04:45.106Z,15.20
2018-06-12T13:07:13.901Z,15.20
2018-06-12T13:09:42.712Z,15.10
2018-06-12T13:12:11.450Z,15.10
2018-06-12T13:20:25.309Z,15.10
2018-06-12T13:22:53.843Z,15.00
2018-06-12T13:25:29.428Z,14.90
2018-06-12T13:27:58.320Z,14.90
2018-06-12T13:30:27.211Z,14.90
2018-06-12T13:32:56.770Z,14.80
2018-06-12T13:35:25.647Z,14.80
2018-06-12T13:37:54.283Z,14.70
2018-06-12T13:40:22.918Z,14.70
2018-06-12T13:42:51.756Z,14.70
2018-06-12T13:45:20.368Z,14.70
2018-06-12T13:47:48.989Z,14.80
2018-06-12T13:50:21.461Z,14.80
2018-06-12T13:52:50.205Z,14.90
2018-06-12T13:55:22.530Z,15.00
2018-06-12T13:57:51.233Z,15.00
2018-06-12T14:00:21.708Z,15.20
2018-06-12T14:02:50.525Z,15.30
2018-06-12T14:05:19.299Z,15.10
2018-06-12T14:07:48.601Z,15.00
2018-06-12T14:10:17.349Z,15.10
2018-06-12T14:12:47.013Z,15.20
2018-06-12T14:15:15.699Z,15.30
2018-06-12T14:17:44.533Z,15.30
2018-06-12T14:20:13.182Z,15.30
2018-06-12T14:22:42.103Z,15.20
2018-06-12T14:25:10.738Z,15.10
2018-06-12T14:27:43.364Z,15.00
2018-06-12T14:30:12.150Z,14.90
2018-06-12T14:32:40.986Z,14.80
2018-06-12T14:35:09.757Z,14.80
2018-06-12T14:37:38.405Z,14.80
2018-06-12T14:40:08.183Z,14.80
2018-06-12T14:42:36.935Z,14.70
2018-06-12T14:47:58.521Z,14.70
2018-06-12T14:50:27.528Z,14.70
2018-06-12T14:52:56.297Z,14.70
2018-06-12T14:55:25.301Z,14.70
2018-06-12T14:57:54.215Z,14.90
2018-06-12T15:00:22.999Z,14.90
2018-06-12T15:02:52.061Z,15.00
2018-06-12T15:05:20.854Z,15.00
2018-06-12T15:07:49.396Z,15.00
2018-06-12T15:10:18.021Z,15.00
2018-06-12T15:12:47.464Z,14.90
2018-06-12T15:15:16.277Z,14.90
2018-06-12T15:17:44.977Z,15.00
2018-06-12T15:20:14.125Z,14.90
2018-06-12T15:22:42.747Z,14.90
2018-06-12T15:25:11.437Z,14.90
2018-06-12T15:27:40.394Z,15.00
2018-06-12T15:30:09.261Z,15.30
2018-06-12T15:32:38.307Z,15.40
2018-06-12T15:35:07.003Z,15.50
2018-06-12T15:37:36.215Z,15.50
2018-06-12T15:40:05.012Z,15.30
2018-06-12T15:42:34.497Z,15.10
2018-06-12T15:45:03.092Z,15.10
2018-06-12T15:47:31.738Z,15.00
2018-06-12T15:50:08.640Z,15.00
2018-06-12T15:52:37.287Z,15.00
2018-06-12T15:55:10.698Z,14.90
2018-06-12T15:57:57.652Z,14.90
2018-06-12T16:00:38.974Z,15.00
2018-06-12T16:03:07.837Z,15.20
2018-06-12T16:05:36.823Z,15.30
2018-06-12T16:08:06.655Z,15.30
2018-06-12T16:10:35.346Z,15.30
2018-06-12T16:13:04.162Z,15.40
2018-06-12T16:15:33.330Z,15.60
2018-06-12T16:18:01.917Z,15.80
2018-06-12T16:20:30.829Z,15.90
2018-06-12T16:22:59.923Z,16.00
2018-06-12T16:25:28.742Z,16.30
2018-06-12T16:27:57.574Z,16.40
2018-06-12T16:30:29.794Z,16.30
2018-06-12T16:32:58.551Z,16.30
2018-06-12T16:35:27.306Z,16.30
2018-06-12T16:37:56.012Z,16.10
2018-06-12T16:40:27.603Z,16.00
2018-06-12T16:42:58.782Z,16.20
2018-06-12T16:45:29.028Z,16.20
2018-06-12T16:47:57.945Z,16.20
2018-06-12T16:50:26.828Z,16.10
2018-06-12T16:52:55.492Z,16.20
2018-06-12T16:55:24.134Z,16.10
2018-06-12T16:57:52.904Z,16.10
2018-06-12T17:00:21.913Z,16.20
2018-06-12T17:02:50.925Z,16.30
2018-06-12T17:05:20.285Z,16.40
2018-06-12T17:07:49.046Z,16.40
2018-06-12T17:10:17.997Z,16.40
2018-06-12T17:12:46.963Z,16.30
2018-06-12T17:15:15.656Z,16.40
2018-06-12T17:17:44.356Z,16.40
2018-06-12T17:20:13.222Z,16.40
2018-06-12T17:22:41.916Z,16.50
2018-06-12T17:25:10.630Z,16.40
2018-06-12T17:27:39.600Z,16.30
2018-06-12T17:30:08.746Z,16.30
2018-06-12T17:32:37.381Z,16.10
2018-06-12T17:35:06.105Z,16.20
2018-06-12T17:37:34.896Z,16.10
2018-06-12T17:40:04.126Z,16.10
2018-06-12T17:42:32.970Z,16.10
2018-06-12T17:45:02.574Z,16.20
2018-06-12T17:47:33.565Z,16.20
2018-06-12T17:50:02.731Z,16.20
2018-06-12T17:52:32.402Z,16.20
2018-06-12T17:55:04.465Z,16.30
2018-06-12T17:57:33.416Z,16.30
2018-06-12T18:03:04.993Z,16.20
2018-06-12T18:05:34.250Z,16.20
2018-06-12T18:08:03.632Z,16.30
2018-06-12T18:10:33.236Z,16.20
2018-06-12T18:13:02.567Z,16.40
2018-06-12T18:15:31.602Z,16.30
2018-06-12T18:18:00.622Z,16.20
2018-06-12T18:20:29.579Z,16.20
2018-06-12T18:22:58.566Z,16.20
2018-06-12T18:25:27.518Z,16.20
2018-06-12T18:27:59.195Z,16.20
2018-06-12T18:30:28.266Z,15.90
2018-06-12T18:32:57.350Z,15.80
2018-06-12T18:35:26.298Z,15.70
2018-06-12T18:37:56.402Z,15.60
2018-06-12T18:43:21.783Z,15.40
2018-06-12T18:45:53.678Z,15.30
2018-06-12T18:48:23.510Z,15.20
2018-06-12T18:50:52.555Z,15.20
2018-06-12T18:53:25.795Z,15.20
2018-06-12T18:55:54.924Z,15.10
2018-06-12T18:58:23.873Z,15.00
2018-06-12T19:00:53.133Z,15.00
2018-06-12T19:03:21.769Z,15.00
2018-06-12T19:05:50.763Z,15.00
2018-06-12T19:08:19.617Z,15.00
2018-06-12T19:10:48.426Z,14.90
2018-06-12T19:13:17.173Z,14.80
2018-06-12T19:15:46.091Z,14.70
2018-06-12T19:18:15.591Z,14.70
2018-06-12T19:20:49.149Z,14.60
2018-06-12T19:23:18.034Z,14.60
2018-06-12T19:25:46.791Z,14.60
2018-06-12T19:28:15.625Z,14.60
2018-06-12T19:30:44.943Z,14.70
2018-06-12T19:33:13.755Z,14.60
2018-06-12T19:35:42.573Z,14.60
2018-06-12T19:38:15.530Z,14.60
2018-06-12T19:40:44.299Z,14.60
2018-06-12T19:43:13.114Z,14.60
2018-06-12T19:45:42.037Z,14.60
2018-06-12T19:48:10.963Z,14.50
2018-06-12T19:50:41.792Z,14.50
2018-06-12T19:53:11.690Z,14.50
2018-06-12T19:55:45.089Z,14.50
2018-06-12T19:58:14.017Z,14.50
2018-06-12T20:00:43.830Z,14.50
2018-06-12T20:03:14.801Z,14.50
2018-06-12T20:05:43.677Z,14.50
2018-06-12T20:08:12.561Z,14.40
2018-06-12T20:10:41.362Z,14.50
2018-06-12T20:13:10.315Z,14.40
2018-06-12T20:15:39.201Z,14.40
2018-06-12T20:18:08.066Z,14.40
2018-06-12T20:20:36.882Z,14.40
2018-06-12T20:23:05.766Z,14.40
2018-06-12T20:25:37.371Z,14.30
2018-06-12T20:28:06.295Z,14.30
2018-06-12T20:30:35.406Z,14.20
2018-06-12T20:33:04.607Z,14.20
2018-06-12T20:35:33.455Z,14.20
2018-06-12T20:38:02.328Z,14.10
2018-06-12T20:40:31.090Z,14.00
2018-06-12T20:42:59.901Z,14.00
2018-06-12T20:45:29.206Z,14.00
2018-06-12T20:47:58.227Z,13.70
2018-06-12T20:50:27.305Z,13.70
2018-06-12T20:52:56.254Z,13.60
2018-06-12T20:55:24.971Z,13.70
2018-06-12T20:57:53.967Z,13.60
2018-06-12T21:00:23.062Z,13.60
2018-06-12T21:02:52.020Z,13.60
2018-06-12T21:05:20.822Z,13.60
2018-06-12T21:07:50.154Z,13.60
2018-06-12T21:10:19.136Z,13.60
2018-06-12T21:12:47.903Z,13.60
2018-06-12T21:15:19.891Z,13.50
2018-06-12T21:17:48.577Z,13.40
2018-06-12T21:20:17.308Z,13.40
2018-06-12T21:22:46.016Z,13.30
2018-06-12T21:25:14.591Z,13.30
2018-06-12T21:27:43.267Z,13.30
2018-06-12T21:30:11.998Z,13.30
2018-06-12T21:32:40.791Z,13.40
2018-06-12T21:35:09.441Z,13.40
2018-06-12T21:37:38.113Z,13.40
2018-06-12T21:40:06.923Z,13.30
2018-06-12T21:42:35.670Z,13.30
2018-06-12T21:45:04.454Z,13.30
2018-06-12T21:47:33.288Z,13.20
2018-06-12T21:50:02.075Z,13.20
2018-06-12T21:52:30.826Z,13.20
2018-06-12T21:54:59.529Z,13.20
2018-06-12T21:57:28.264Z,13.20
2018-06-12T21:59:57.020Z,13.20
2018-06-12T22:02:25.736Z,13.20
2018-06-12T22:07:57.344Z,13.10
2018-06-12T22:10:26.256Z,13.10
2018-06-12T22:12:55.005Z,13.10
2018-06-12T22:15:23.644Z,13.10
2018-06-12T22:17:53.271Z,13.10
2018-06-12T22:20:21.910Z,13.00
2018-06-12T22:22:50.609Z,13.00
2018-06-12T22:25:19.353Z,13.00
2018-06-12T22:27:48.272Z,13.00
2018-06-12T22:30:17.614Z,13.00
2018-06-12T22:32:46.302Z,13.00
2018-06-12T22:35:15.056Z,13.00
2018-06-12T22:37:43.824Z,13.00
2018-06-12T22:40:12.654Z,13.00
2018-06-12T22:42:41.322Z,13.00
2018-06-12T22:45:09.934Z,13.00
2018-06-12T22:47:38.677Z,13.00
2018-06-12T22:50:07.410Z,13.00
2018-06-12T22:52:36.161Z,13.10
2018-06-12T22:55:05.019Z,13.10
2018-06-12T22:57:33.662Z,13.00
2018-06-12T23:00:02.367Z,13.00
2018-06-12T23:02:31.061Z,13.00
2018-06-12T23:04:59.855Z,13.00
2018-06-12T23:07:28.633Z,13.00
2018-06-12T23:09:57.410Z,12.90
2018-06-12T23:12:26.134Z,13.00
2018-06-12T23:14:54.929Z,13.00
2018-06-12T23:17:23.677Z,13.00
2018-06-12T23:20:03.454Z,13.00
2018-06-12T23:22:32.230Z,13.00
2018-06-12T23:25:01.257Z,13.00
2018-06-12T23:27:30.039Z,12.90
2018-06-12T23:29:58.758Z,12.90
2018-06-12T23:32:27.569Z,12.90
2018-06-12T23:34:56.290Z,12.90
2018-06-12T23:37:25.381Z,12.90
2018-06-12T23:39:54.013Z,12.90
2018-06-12T23:42:22.817Z,12.90
2018-06-12T23:44:51.405Z,12.80
2018-06-12T23:47:20.011Z,12.90
2018-06-12T23:49:48.800Z,12.80
2018-06-12T23:52:17.619Z,12.80
2018-06-12T23:54:46.382Z,12.80
2018-06-12T23:57:15.110Z,12.70
2018-06-12T23:59:43.853Z,12.70
